createdAt,value
2023-06-30T00:02:15.760Z,77.33
2023-06-30T00:04:44.993Z,68.49
2023-06-30T00:07:14.347Z,78.87
2023-06-30T00:09:43.456Z,65.09
2023-06-30T00:12:12.690Z,65.47
2023-06-30T00:14:41.748Z,64.65
2023-06-30T00:17:10.934Z,65.87
2023-06-30T00:19:40.220Z,67.82
2023-06-30T00:22:09.819Z,70.31
2023-06-30T00:24:39.178Z,75.44
2023-06-30T00:27:14.053Z,74.40
2023-06-30T00:30:10.641Z,74.59
2023-06-30T00:33:01.161Z,72.01
2023-06-30T00:35:47.677Z,75.43
2023-06-30T00:38:20.192Z,73.94
2023-06-30T00:41:08.303Z,69.20
2023-06-30T00:43:41.993Z,64.79
2023-06-30T00:46:19.402Z,66.07
2023-06-30T00:48:52.176Z,76.16
2023-06-30T00:51:31.034Z,72.70
2023-06-30T00:54:00.410Z,70.54
2023-06-30T00:56:30.402Z,70.73
2023-06-30T00:59:00.550Z,70.55
2023-06-30T01:01:42.512Z,71.87
2023-06-30T01:04:38.763Z,62.65
2023-06-30T01:07:20.006Z,62.52
2023-06-30T01:10:21.607Z,64.80
2023-06-30T01:12:51.447Z,61.40
2023-06-30T01:15:21.475Z,62.07
2023-06-30T01:17:55.536Z,61.27
2023-06-30T01:20:31.695Z,60.20
2023-06-30T01:23:18.042Z,59.46
2023-06-30T01:25:51.035Z,57.48
2023-06-30T01:28:20.821Z,61.92
2023-06-30T01:30:52.068Z,61.96
2023-06-30T01:33:21.596Z,62.47
2023-06-30T01:35:52.189Z,66.02
2023-06-30T01:38:26.398Z,56.67
2023-06-30T01:44:16.699Z,54.72
2023-06-30T01:46:55.076Z,55.74
2023-06-30T01:49:25.846Z,57.17
2023-06-30T01:51:55.285Z,58.77
2023-06-30T01:54:27.784Z,60.69
2023-06-30T01:57:04.010Z,59.54
2023-06-30T01:59:33.925Z,57.94
2023-06-30T02:02:06.658Z,59.73
2023-06-30T02:04:37.955Z,63.20
2023-06-30T02:07:11.329Z,66.38
2023-06-30T02:09:47.831Z,70.57
2023-06-30T02:12:21.140Z,74.88
2023-06-30T02:14:54.579Z,79.15
2023-06-30T02:17:37.512Z,94.53
2023-06-30T02:20:18.989Z,93.32
2023-06-30T02:22:56.208Z,93.90
2023-06-30T02:25:32.492Z,93.45
2023-06-30T02:28:06.446Z,100.00
2023-06-30T02:30:41.575Z,98.68
2023-06-30T02:33:14.186Z,96.12
2023-06-30T02:35:47.127Z,96.34
2023-06-30T02:38:22.635Z,100.00
2023-06-30T02:40:55.114Z,100.00
2023-06-30T02:43:28.918Z,100.00
2023-06-30T02:46:02.173Z,100.00
2023-06-30T02:48:41.178Z,100.00
2023-06-30T02:51:17.503Z,100.00
2023-06-30T02:53:47.149Z,100.00
2023-06-30T02:56:16.639Z,100.00
2023-06-30T02:58:48.492Z,100.00
2023-06-30T03:01:18.362Z,100.00
2023-06-30T03:04:40.564Z,100.00
2023-06-30T03:07:51.473Z,100.00
2023-06-30T03:10:21.867Z,100.00
2023-06-30T03:12:51.176Z,100.00
2023-06-30T03:15:23.200Z,100.00
2023-06-30T03:17:53.245Z,100.00
2023-06-30T03:20:22.743Z,100.00
2023-06-30T03:23:03.890Z,100.00
2023-06-30T03:25:37.396Z,100.00
2023-06-30T03:28:06.804Z,100.00
2023-06-30T03:30:35.973Z,100.00
2023-06-30T03:33:19.697Z,100.00
2023-06-30T03:36:22.797Z,100.00
2023-06-30T03:38:55.384Z,100.00
2023-06-30T03:41:30.627Z,100.00
2023-06-30T03:44:02.858Z,100.00
2023-06-30T03:46:34.146Z,100.00
2023-06-30T03:49:03.846Z,100.00
2023-06-30T03:51:32.980Z,100.00
2023-06-30T03:54:02.358Z,100.00
2023-06-30T03:56:50.412Z,100.00
2023-06-30T03:59:25.794Z,100.00
2023-06-30T04:02:13.669Z,100.00
2023-06-30T04:04:52.483Z,100.00
2023-06-30T04:07:21.771Z,100.00
2023-06-30T04:09:51.234Z,100.00
2023-06-30T04:12:23.621Z,100.00
2023-06-30T04:14:59.175Z,100.00
2023-06-30T04:17:28.714Z,100.00
2023-06-30T04:20:00.368Z,100.00
2023-06-30T04:22:29.878Z,100.00
2023-06-30T04:25:01.068Z,100.00
2023-06-30T04:27:33.227Z,100.00
2023-06-30T04:30:06.148Z,100.00
2023-06-30T04:32:40.095Z,100.00
2023-06-30T04:35:10.150Z,100.00
2023-06-30T04:37:44.824Z,100.00
2023-06-30T04:40:40.674Z,100.00
2023-06-30T04:43:14.513Z,100.00
2023-06-30T04:45:48.396Z,100.00
2023-06-30T04:48:20.844Z,100.00
2023-06-30T04:50:56.392Z,100.00
2023-06-30T04:55:27.843Z,100.00
2023-06-30T04:57:47.002Z,100.00
2023-06-30T05:00:19.679Z,100.00
2023-06-30T05:02:52.022Z,100.00
2023-06-30T05:05:23.248Z,100.00
2023-06-30T05:07:54.868Z,100.00
2023-06-30T05:10:44.720Z,100.00
2023-06-30T05:13:14.844Z,100.00
2023-06-30T05:15:49.477Z,100.00
2023-06-30T05:21:22.442Z,100.00
2023-06-30T05:21:39.672Z,100.00
2023-06-30T05:24:11.356Z,100.00
2023-06-30T05:26:41.904Z,100.00
2023-06-30T05:29:13.633Z,100.00
2023-06-30T05:31:45.420Z,100.00
2023-06-30T05:34:18.104Z,100.00
2023-06-30T05:36:51.796Z,100.00
2023-06-30T05:39:25.301Z,100.00
2023-06-30T05:41:55.688Z,100.00
2023-06-30T05:44:48.318Z,100.00
2023-06-30T05:47:36.829Z,100.00
2023-06-30T05:50:15.752Z,100.00
2023-06-30T05:52:46.898Z,100.00
2023-06-30T05:55:16.559Z,100.00
2023-06-30T05:57:51.587Z,100.00
2023-06-30T06:00:35.137Z,100.00
2023-06-30T06:03:14.219Z,100.00
2023-06-30T06:05:46.594Z,100.00
2023-06-30T06:08:24.426Z,100.00
2023-06-30T06:11:04.668Z,100.00
2023-06-30T06:14:06.501Z,100.00
2023-06-30T06:16:41.469Z,100.00
2023-06-30T06:19:14.306Z,100.00
2023-06-30T06:22:01.830Z,100.00
2023-06-30T06:24:37.605Z,100.00
2023-06-30T06:27:12.402Z,100.00
2023-06-30T06:29:41.879Z,100.00
2023-06-30T06:32:33.203Z,100.00
2023-06-30T06:35:32.853Z,100.00
2023-06-30T06:38:09.041Z,100.00
2023-06-30T06:40:51.757Z,100.00
2023-06-30T06:43:35.054Z,100.00
2023-06-30T06:46:07.411Z,100.00
2023-06-30T06:48:52.847Z,100.00
2023-06-30T06:51:52.277Z,100.00
2023-06-30T06:54:49.706Z,100.00
2023-06-30T06:57:41.463Z,100.00
2023-06-30T07:00:12.405Z,100.00
2023-06-30T07:03:10.139Z,100.00
2023-06-30T07:05:43.513Z,100.00
2023-06-30T07:08:16.970Z,100.00
2023-06-30T07:10:50.870Z,100.00
2023-06-30T07:13:43.088Z,100.00
2023-06-30T07:16:13.434Z,100.00
2023-06-30T07:18:43.174Z,100.00
2023-06-30T07:21:15.622Z,100.00
2023-06-30T07:23:59.509Z,100.00
2023-06-30T07:26:40.330Z,100.00
2023-06-30T07:29:10.027Z,100.00
2023-06-30T07:31:42.625Z,100.00
2023-06-30T07:34:25.825Z,100.00
2023-06-30T07:37:11.813Z,100.00
2023-06-30T07:40:24.645Z,100.00
2023-06-30T07:42:58.013Z,100.00
2023-06-30T07:45:38.310Z,100.00
2023-06-30T07:48:07.980Z,100.00
2023-06-30T07:50:37.596Z,100.00
2023-06-30T07:53:10.382Z,100.00
2023-06-30T07:55:39.784Z,100.00
2023-06-30T07:58:15.003Z,100.00
2023-06-30T08:00:59.265Z,100.00
2023-06-30T08:03:38.380Z,100.00
2023-06-30T08:06:11.221Z,100.00
2023-06-30T08:09:07.114Z,100.00
2023-06-30T08:11:55.077Z,100.00
2023-06-30T08:14:27.412Z,100.00
2023-06-30T08:16:56.811Z,100.00
2023-06-30T08:19:47.306Z,100.00
2023-06-30T08:22:26.670Z,100.00
2023-06-30T08:24:58.234Z,100.00
2023-06-30T08:27:29.802Z,100.00
2023-06-30T08:29:59.478Z,100.00
2023-06-30T08:32:34.399Z,100.00
2023-06-30T08:35:07.074Z,100.00
2023-06-30T08:37:45.963Z,100.00
2023-06-30T08:40:49.846Z,100.00
2023-06-30T08:44:09.271Z,100.00
2023-06-30T08:51:01.256Z,100.00
2023-06-30T08:53:34.966Z,100.00
2023-06-30T08:56:29.912Z,100.00
2023-06-30T08:58:59.678Z,100.00
2023-06-30T09:01:52.967Z,100.00
2023-06-30T09:04:25.397Z,100.00
2023-06-30T09:07:01.334Z,100.00
2023-06-30T09:10:19.124Z,100.00
2023-06-30T09:12:50.427Z,100.00
2023-06-30T09:15:33.614Z,100.00
2023-06-30T09:18:20.080Z,100.00
2023-06-30T09:21:15.868Z,100.00
2023-06-30T09:24:06.423Z,100.00
2023-06-30T09:26:37.294Z,100.00
2023-06-30T09:29:19.002Z,100.00
2023-06-30T09:32:07.383Z,100.00
2023-06-30T09:34:39.718Z,100.00
2023-06-30T09:37:27.958Z,100.00
2023-06-30T09:40:33.713Z,100.00
2023-06-30T09:43:41.593Z,100.00
2023-06-30T09:46:19.376Z,100.00
2023-06-30T09:49:09.780Z,100.00
2023-06-30T09:52:08.681Z,100.00
2023-06-30T09:54:46.462Z,100.00
2023-06-30T09:57:59.913Z,100.00
2023-06-30T10:00:39.577Z,100.00
2023-06-30T10:03:53.899Z,100.00
2023-06-30T10:07:24.200Z,100.00
2023-06-30T10:10:41.834Z,100.00
2023-06-30T10:13:32.114Z,100.00
2023-06-30T10:16:27.783Z,100.00
2023-06-30T10:19:32.535Z,100.00
2023-06-30T10:22:26.598Z,100.00
2023-06-30T10:25:39.954Z,100.00
2023-06-30T10:28:18.365Z,100.00
2023-06-30T10:34:28.985Z,100.00
2023-06-30T10:37:05.473Z,100.00
2023-06-30T10:39:39.691Z,100.00
2023-06-30T10:42:30.059Z,100.00
2023-06-30T10:45:23.807Z,100.00
2023-06-30T10:47:59.085Z,100.00
2023-06-30T10:50:57.686Z,100.00
2023-06-30T10:54:12.199Z,100.00
2023-06-30T10:56:49.776Z,100.00
2023-06-30T11:00:01.474Z,100.00
2023-06-30T11:02:36.210Z,100.00
2023-06-30T11:05:35.976Z,100.00
2023-06-30T11:08:23.954Z,100.00
2023-06-30T11:11:08.970Z,100.00
2023-06-30T11:14:49.580Z,100.00
2023-06-30T11:17:24.620Z,100.00
2023-06-30T11:20:22.297Z,100.00
2023-06-30T11:23:36.548Z,100.00
2023-06-30T11:26:38.873Z,100.00
2023-06-30T11:29:21.512Z,100.00
2023-06-30T11:31:56.762Z,100.00
2023-06-30T11:34:49.237Z,100.00
2023-06-30T11:37:22.288Z,100.00
2023-06-30T11:39:58.195Z,100.00
2023-06-30T11:42:28.557Z,100.00
2023-06-30T11:45:31.897Z,100.00
2023-06-30T11:47:54.778Z,100.00
2023-06-30T11:50:38.956Z,100.00
2023-06-30T11:53:33.168Z,100.00
2023-06-30T11:56:19.375Z,100.00
2023-06-30T11:59:22.451Z,100.00
2023-06-30T12:02:20.927Z,100.00
2023-06-30T12:06:09.787Z,100.00
2023-06-30T12:08:34.039Z,100.00
2023-06-30T12:11:20.544Z,100.00
2023-06-30T12:13:55.888Z,100.00
2023-06-30T12:16:28.813Z,100.00
2023-06-30T12:22:14.456Z,100.00
2023-06-30T12:24:58.785Z,100.00
2023-06-30T12:27:40.778Z,100.00
2023-06-30T12:30:46.475Z,100.00
2023-06-30T12:33:33.002Z,100.00
2023-06-30T12:36:10.395Z,100.00
2023-06-30T12:38:41.951Z,100.00
2023-06-30T12:41:11.575Z,100.00
2023-06-30T12:43:41.030Z,100.00
2023-06-30T12:46:45.880Z,100.00
2023-06-30T12:49:05.457Z,100.00
2023-06-30T12:51:41.185Z,100.00
2023-06-30T12:54:10.751Z,100.00
2023-06-30T12:56:45.587Z,100.00
2023-06-30T12:59:17.034Z,100.00
2023-06-30T13:02:15.174Z,100.00
2023-06-30T13:04:58.558Z,100.00
2023-06-30T13:07:35.890Z,100.00
2023-06-30T13:14:35.022Z,100.00
2023-06-30T13:17:10.837Z,100.00
2023-06-30T13:19:40.178Z,100.00
2023-06-30T13:22:16.721Z,100.00
2023-06-30T13:24:49.163Z,100.00
2023-06-30T13:27:22.232Z,100.00
2023-06-30T13:29:54.578Z,100.00
2023-06-30T13:32:28.777Z,100.00
2023-06-30T13:35:11.755Z,100.00
2023-06-30T13:38:07.967Z,100.00
2023-06-30T13:40:40.325Z,100.00
2023-06-30T13:43:13.292Z,100.00
2023-06-30T13:45:43.203Z,100.00
2023-06-30T13:48:15.909Z,100.00
2023-06-30T13:50:52.658Z,100.00
2023-06-30T13:53:45.909Z,100.00
2023-06-30T13:56:18.120Z,100.00
2023-06-30T13:58:47.406Z,100.00
2023-06-30T14:01:29.353Z,100.00
2023-06-30T14:04:09.866Z,100.00
2023-06-30T14:06:39.358Z,100.00
2023-06-30T14:09:12.902Z,100.00
2023-06-30T14:11:43.347Z,100.00
2023-06-30T14:14:14.946Z,100.00
2023-06-30T14:16:47.300Z,100.00
2023-06-30T14:19:19.132Z,100.00
2023-06-30T14:21:48.329Z,100.00
2023-06-30T14:24:17.475Z,100.00
2023-06-30T14:26:46.614Z,100.00
2023-06-30T14:29:18.382Z,100.00
2023-06-30T14:31:51.622Z,100.00
2023-06-30T14:34:20.863Z,100.00
2023-06-30T14:36:50.160Z,100.00
2023-06-30T14:39:30.500Z,100.00
2023-06-30T14:42:27.042Z,100.00
2023-06-30T14:45:19.546Z,100.00
2023-06-30T14:47:48.734Z,100.00
2023-06-30T14:50:18.165Z,100.00
2023-06-30T14:52:48.446Z,100.00
2023-06-30T14:55:17.664Z,100.00
2023-06-30T14:57:48.068Z,100.00
2023-06-30T15:00:22.508Z,100.00
2023-06-30T15:02:51.871Z,100.00
2023-06-30T15:05:21.562Z,100.00
2023-06-30T15:07:52.969Z,100.00
2023-06-30T15:10:22.244Z,100.00
2023-06-30T15:12:52.284Z,100.00
2023-06-30T15:15:21.594Z,100.00
2023-06-30T15:17:53.801Z,100.00
2023-06-30T15:20:24.231Z,100.00
2023-06-30T15:22:59.540Z,100.00
2023-06-30T15:25:31.501Z,100.00
2023-06-30T15:28:03.717Z,100.00
2023-06-30T15:30:33.035Z,100.00
2023-06-30T15:33:14.419Z,100.00
2023-06-30T15:35:43.827Z,100.00
2023-06-30T15:38:21.739Z,100.00
2023-06-30T15:40:56.300Z,100.00
2023-06-30T15:43:32.959Z,100.00
2023-06-30T15:46:02.868Z,100.00
2023-06-30T15:48:32.086Z,100.00
2023-06-30T15:51:05.252Z,100.00
2023-06-30T15:53:34.669Z,100.00
2023-06-30T15:56:20.860Z,100.00
2023-06-30T15:58:55.713Z,100.00
2023-06-30T16:01:44.867Z,100.00
2023-06-30T16:04:23.480Z,100.00
2023-06-30T16:07:06.728Z,100.00
2023-06-30T16:09:36.108Z,100.00
2023-06-30T16:12:08.351Z,100.00
2023-06-30T16:14:37.680Z,100.00
2023-06-30T16:17:06.783Z,100.00
2023-06-30T16:19:38.437Z,100.00
2023-06-30T16:22:07.685Z,100.00
2023-06-30T16:24:43.135Z,100.00
2023-06-30T16:27:20.435Z,100.00
2023-06-30T16:29:54.959Z,100.00
2023-06-30T16:32:33.234Z,100.00
2023-06-30T16:35:11.579Z,100.00
2023-06-30T16:37:41.335Z,100.00
2023-06-30T16:40:34.879Z,100.00
2023-06-30T16:43:07.035Z,100.00
2023-06-30T16:45:39.576Z,100.00
2023-06-30T16:48:20.808Z,100.00
2023-06-30T16:50:59.498Z,100.00
2023-06-30T16:53:29.970Z,100.00
2023-06-30T16:56:05.340Z,100.00
2023-06-30T16:58:41.937Z,100.00
2023-06-30T17:01:11.543Z,100.00
2023-06-30T17:03:41.103Z,100.00
2023-06-30T17:06:17.331Z,100.00
2023-06-30T17:08:50.236Z,100.00
2023-06-30T17:11:21.296Z,100.00
2023-06-30T17:14:02.910Z,100.00
2023-06-30T17:16:39.597Z,100.00
2023-06-30T17:19:13.477Z,100.00
2023-06-30T17:21:45.881Z,100.00
2023-06-30T17:24:16.929Z,100.00
2023-06-30T17:26:55.100Z,100.00
2023-06-30T17:29:25.086Z,100.00
2023-06-30T17:31:54.455Z,100.00
2023-06-30T17:34:27.524Z,100.00
2023-06-30T17:37:04.935Z,100.00
2023-06-30T17:39:37.762Z,100.00
2023-06-30T17:42:12.973Z,100.00
2023-06-30T17:44:47.686Z,100.00
2023-06-30T17:47:17.309Z,100.00
2023-06-30T17:49:50.061Z,100.00
2023-06-30T17:52:19.628Z,100.00
2023-06-30T17:54:49.890Z,100.00
2023-06-30T17:57:19.510Z,100.00
2023-06-30T17:59:51.402Z,100.00
2023-06-30T18:02:21.120Z,100.00
2023-06-30T18:04:51.906Z,100.00
2023-06-30T18:07:24.247Z,100.00
2023-06-30T18:09:53.686Z,100.00
2023-06-30T18:12:23.265Z,100.00
2023-06-30T18:14:52.500Z,100.00
2023-06-30T18:17:24.226Z,100.00
2023-06-30T18:20:02.988Z,100.00
2023-06-30T18:22:32.696Z,100.00
2023-06-30T18:25:02.505Z,100.00
2023-06-30T18:27:36.986Z,100.00
2023-06-30T18:30:06.873Z,100.00
2023-06-30T18:32:39.741Z,100.00
2023-06-30T18:35:10.482Z,100.00
2023-06-30T18:37:39.680Z,100.00
2023-06-30T18:40:13.012Z,100.00
2023-06-30T18:43:02.168Z,100.00
2023-06-30T18:53:04.415Z,100.00
2023-06-30T18:53:34.134Z,100.00
2023-06-30T18:56:01.222Z,100.00
2023-06-30T18:59:31.606Z,100.00
2023-06-30T19:03:37.659Z,100.00
2023-06-30T19:06:29.321Z,100.00
2023-06-30T19:09:53.125Z,100.00
2023-06-30T19:12:25.833Z,100.00
2023-06-30T19:15:53.966Z,100.00
2023-06-30T19:19:08.535Z,100.00
2023-06-30T19:21:46.950Z,100.00
2023-06-30T19:24:35.360Z,100.00
2023-06-30T19:27:28.961Z,100.00
2023-06-30T19:30:28.014Z,100.00
2023-06-30T19:33:01.156Z,100.00
2023-06-30T19:35:34.203Z,100.00
2023-06-30T19:38:06.913Z,100.00
2023-06-30T19:40:57.128Z,100.00
2023-06-30T19:43:29.979Z,100.00
2023-06-30T19:46:19.513Z,100.00
2023-06-30T19:48:53.747Z,100.00
2023-06-30T19:51:22.965Z,100.00
2023-06-30T19:54:23.246Z,100.00
2023-06-30T19:56:47.902Z,100.00
2023-06-30T19:59:18.113Z,100.00
2023-06-30T20:01:58.192Z,100.00
2023-06-30T20:04:29.594Z,100.00
2023-06-30T20:06:59.262Z,100.00
2023-06-30T20:09:34.510Z,100.00
2023-06-30T20:12:08.044Z,100.00
2023-06-30T20:14:42.690Z,100.00
2023-06-30T20:17:18.281Z,100.00
2023-06-30T20:19:49.739Z,100.00
2023-06-30T20:22:21.823Z,100.00
2023-06-30T20:25:50.020Z,100.00
2023-06-30T20:28:25.795Z,100.00
2023-06-30T20:30:57.216Z,100.00
2023-06-30T20:33:35.014Z,100.00
2023-06-30T20:36:15.251Z,100.00
2023-06-30T20:38:45.599Z,100.00
2023-06-30T20:41:15.008Z,100.00
2023-06-30T20:43:47.298Z,100.00
2023-06-30T20:46:17.170Z,100.00
2023-06-30T20:49:17.134Z,100.00
2023-06-30T20:51:57.684Z,100.00
2023-06-30T20:54:47.666Z,100.00
2023-06-30T20:57:17.626Z,100.00
2023-06-30T20:59:49.577Z,100.00
2023-06-30T21:02:22.108Z,100.00
2023-06-30T21:04:54.776Z,100.00
2023-06-30T21:07:24.059Z,100.00
2023-06-30T21:09:58.569Z,100.00
2023-06-30T21:12:27.834Z,100.00
2023-06-30T21:15:17.996Z,98.76
2023-06-30T21:17:47.485Z,100.00
2023-06-30T21:20:16.922Z,100.00
2023-06-30T21:22:46.692Z,100.00
2023-06-30T21:25:17.524Z,100.00
2023-06-30T21:27:47.797Z,100.00
2023-06-30T21:30:26.243Z,99.94
2023-06-30T21:33:20.651Z,100.00
2023-06-30T21:35:55.645Z,99.62
2023-06-30T21:38:43.164Z,95.68
2023-06-30T21:41:18.505Z,100.00
2023-06-30T21:43:54.374Z,99.76
2023-06-30T21:46:41.093Z,97.20
2023-06-30T21:49:15.254Z,100.00
2023-06-30T21:51:44.450Z,97.71
2023-06-30T21:54:16.526Z,100.00
2023-06-30T21:56:45.974Z,98.93
2023-06-30T21:59:17.304Z,100.00
2023-06-30T22:01:46.634Z,100.00
2023-06-30T22:04:24.611Z,91.58
2023-06-30T22:06:54.061Z,100.00
2023-06-30T22:09:23.198Z,100.00
2023-06-30T22:11:52.491Z,100.00
2023-06-30T22:14:25.476Z,97.79
2023-06-30T22:17:20.699Z,99.28
2023-06-30T22:19:49.740Z,100.00
2023-06-30T22:22:18.745Z,95.46
2023-06-30T22:24:47.944Z,86.79
2023-06-30T22:27:20.358Z,85.73
2023-06-30T22:29:52.547Z,86.59
2023-06-30T22:32:24.590Z,89.25
2023-06-30T22:35:01.203Z,90.16
2023-06-30T22:37:34.374Z,87.77
2023-06-30T22:40:03.727Z,85.62
2023-06-30T22:42:56.539Z,79.94
2023-06-30T22:45:33.957Z,75.94
2023-06-30T22:48:38.300Z,78.62
2023-06-30T22:55:08.655Z,81.79
2023-06-30T22:57:38.135Z,83.24
2023-06-30T23:00:08.381Z,82.63
2023-06-30T23:05:51.334Z,75.58
2023-06-30T23:08:24.279Z,76.69
2023-06-30T23:10:59.124Z,76.19
2023-06-30T23:13:32.205Z,73.23
2023-06-30T23:16:34.342Z,77.98
2023-06-30T23:19:03.438Z,79.36
2023-06-30T23:21:34.564Z,79.14
2023-06-30T23:24:11.439Z,77.50
2023-06-30T23:27:16.750Z,79.26
2023-06-30T23:30:16.761Z,76.06
2023-06-30T23:32:58.983Z,81.00
2023-06-30T23:35:28.230Z,79.58
2023-06-30T23:37:58.200Z,80.16
2023-06-30T23:40:30.234Z,78.37
2023-06-30T23:42:59.591Z,76.46
2023-06-30T23:45:32.297Z,80.50
2023-06-30T23:48:01.451Z,75.61
2023-06-30T23:50:30.579Z,79.72
2023-06-30T23:53:03.448Z,76.99
2023-06-30T23:55:33.068Z,75.64
2023-06-30T23:58:05.263Z,77.16
